sensor_id;sensor_type;location;lat;lon;timestamp;pressure;altitude;pressure_sealevel;temperature;humidity
76201;BME280;64981;52.930;9.266;2023-12-20T00:01:29;100857.63;;;6.67;81.93
76201;BME280;64981;52.930;9.266;2023-12-20T00:03:54;100851.38;;;6.58;81.88
76201;BME280;64981;52.930;9.266;2023-12-20T00:06:20;100852.06;;;6.60;81.83
76201;BME280;64981;52.930;9.266;2023-12-20T00:08:46;100845.00;;;6.51;82.10
76201;BME280;64981;52.930;9.266;2023-12-20T00:11:11;100848.84;;;6.47;82.60
76201;BME280;64981;52.930;9.266;2023-12-20T00:13:37;100843.56;;;6.37;82.74
76201;BME280;64981;52.930;9.266;2023-12-20T00:16:02;100840.28;;;6.45;82.45
76201;BME280;64981;52.930;9.266;2023-12-20T00:18:28;100845.13;;;6.49;82.26
76201;BME280;64981;52.930;9.266;2023-12-20T00:20:53;100854.06;;;6.37;82.67
76201;BME280;64981;52.930;9.266;2023-12-20T00:23:19;100859.88;;;6.41;82.69
76201;BME280;64981;52.930;9.266;2023-12-20T00:25:45;100857.38;;;6.39;82.20
76201;BME280;64981;52.930;9.266;2023-12-20T00:28:10;100847.16;;;6.46;81.73
76201;BME280;64981;52.930;9.266;2023-12-20T00:30:36;100853.53;;;6.43;81.85
76201;BME280;64981;52.930;9.266;2023-12-20T00:33:02;100853.19;;;6.27;82.19
76201;BME280;64981;52.930;9.266;2023-12-20T00:35:27;100847.13;;;6.27;82.13
76201;BME280;64981;52.930;9.266;2023-12-20T00:37:53;100841.44;;;6.22;82.22
76201;BME280;64981;52.930;9.266;2023-12-20T00:40:19;100832.97;;;6.18;81.91
76201;BME280;64981;52.930;9.266;2023-12-20T00:42:46;100845.84;;;6.21;82.13
76201;BME280;64981;52.930;9.266;2023-12-20T00:45:12;100846.56;;;6.23;82.10
76201;BME280;64981;52.930;9.266;2023-12-20T00:47:38;100842.59;;;6.08;82.52
76201;BME280;64981;52.930;9.266;2023-12-20T00:50:04;100834.22;;;6.14;82.19
76201;BME280;64981;52.930;9.266;2023-12-20T00:52:29;100843.00;;;6.03;82.08
76201;BME280;64981;52.930;9.266;2023-12-20T00:54:55;100845.78;;;6.12;82.11
76201;BME280;64981;52.930;9.266;2023-12-20T00:57:21;100852.53;;;6.04;82.22
76201;BME280;64981;52.930;9.266;2023-12-20T00:59:46;100849.72;;;5.96;82.73
76201;BME280;64981;52.930;9.266;2023-12-20T01:02:12;100837.44;;;5.97;82.61
76201;BME280;64981;52.930;9.266;2023-12-20T01:04:37;100838.97;;;5.99;82.20
76201;BME280;64981;52.930;9.266;2023-12-20T01:07:03;100837.06;;;5.81;82.68
76201;BME280;64981;52.930;9.266;2023-12-20T01:09:29;100838.34;;;5.86;82.38
76201;BME280;64981;52.930;9.266;2023-12-20T01:11:54;100825.94;;;5.88;82.50
76201;BME280;64981;52.930;9.266;2023-12-20T01:14:20;100818.34;;;5.85;82.41
76201;BME280;64981;52.930;9.266;2023-12-20T01:16:46;100825.06;;;5.78;82.90
76201;BME280;64981;52.930;9.266;2023-12-20T01:19:12;100819.19;;;5.65;83.30
76201;BME280;64981;52.930;9.266;2023-12-20T01:21:38;100830.03;;;5.81;82.42
76201;BME280;64981;52.930;9.266;2023-12-20T01:24:04;100821.34;;;5.81;82.36
76201;BME280;64981;52.930;9.266;2023-12-20T01:26:29;100832.75;;;5.70;82.45
76201;BME280;64981;52.930;9.266;2023-12-20T01:28:55;100836.13;;;5.82;82.76
76201;BME280;64981;52.930;9.266;2023-12-20T01:31:20;100836.88;;;5.93;81.98
76201;BME280;64981;52.930;9.266;2023-12-20T01:33:46;100833.09;;;5.86;81.81
76201;BME280;64981;52.930;9.266;2023-12-20T01:36:11;100810.88;;;5.81;82.17
76201;BME280;64981;52.930;9.266;2023-12-20T01:38:37;100824.81;;;5.81;82.43
76201;BME280;64981;52.930;9.266;2023-12-20T01:41:03;100807.94;;;5.74;81.93
76201;BME280;64981;52.930;9.266;2023-12-20T01:43:30;100808.97;;;5.83;81.84
76201;BME280;64981;52.930;9.266;2023-12-20T01:45:56;100819.13;;;5.76;81.84
76201;BME280;64981;52.930;9.266;2023-12-20T01:48:24;100819.91;;;5.67;81.93
76201;BME280;64981;52.930;9.266;2023-12-20T01:50:51;100815.16;;;5.82;81.73
76201;BME280;64981;52.930;9.266;2023-12-20T01:53:20;100810.69;;;5.52;82.51
76201;BME280;64981;52.930;9.266;2023-12-20T01:55:50;100808.44;;;5.68;82.18
76201;BME280;64981;52.930;9.266;2023-12-20T01:58:17;100810.81;;;5.71;81.78
76201;BME280;64981;52.930;9.266;2023-12-20T02:00:42;100807.03;;;5.64;81.90
76201;BME280;64981;52.930;9.266;2023-12-20T02:03:08;100812.69;;;5.60;81.80
76201;BME280;64981;52.930;9.266;2023-12-20T02:05:35;100808.44;;;5.68;82.01
76201;BME280;64981;52.930;9.266;2023-12-20T02:08:03;100802.19;;;5.60;81.77
76201;BME280;64981;52.930;9.266;2023-12-20T02:10:28;100798.31;;;5.54;82.40
76201;BME280;64981;52.930;9.266;2023-12-20T02:12:54;100796.78;;;5.52;82.77
76201;BME280;64981;52.930;9.266;2023-12-20T02:15:20;100777.72;;;5.49;82.48
76201;BME280;64981;52.930;9.266;2023-12-20T02:17:47;100786.72;;;5.57;82.20
76201;BME280;64981;52.930;9.266;2023-12-20T02:20:13;100783.72;;;5.61;82.04
76201;BME280;64981;52.930;9.266;2023-12-20T02:22:39;100799.63;;;5.69;81.62
76201;BME280;64981;52.930;9.266;2023-12-20T02:25:05;100797.97;;;5.68;81.73
76201;BME280;64981;52.930;9.266;2023-12-20T02:27:30;100788.19;;;5.70;81.43
76201;BME280;64981;52.930;9.266;2023-12-20T02:29:56;100792.72;;;5.68;81.28
76201;BME280;64981;52.930;9.266;2023-12-20T02:32:22;100781.16;;;5.71;81.35
76201;BME280;64981;52.930;9.266;2023-12-20T02:34:51;100782.25;;;5.68;81.46
76201;BME280;64981;52.930;9.266;2023-12-20T02:37:17;100774.06;;;5.62;81.23
76201;BME280;64981;52.930;9.266;2023-12-20T02:39:42;100782.75;;;5.62;81.39
76201;BME280;64981;52.930;9.266;2023-12-20T02:42:08;100769.09;;;5.59;81.06
76201;BME280;64981;52.930;9.266;2023-12-20T02:44:33;100771.91;;;5.46;81.62
76201;BME280;64981;52.930;9.266;2023-12-20T02:46:59;100773.19;;;5.52;81.74
76201;BME280;64981;52.930;9.266;2023-12-20T02:49:25;100762.56;;;5.53;81.63
76201;BME280;64981;52.930;9.266;2023-12-20T02:51:50;100771.84;;;5.36;82.80
76201;BME280;64981;52.930;9.266;2023-12-20T02:54:16;100773.06;;;5.53;81.70
76201;BME280;64981;52.930;9.266;2023-12-20T02:56:41;100768.59;;;5.44;81.98
76201;BME280;64981;52.930;9.266;2023-12-20T02:59:07;100753.41;;;5.38;82.69
76201;BME280;64981;52.930;9.266;2023-12-20T03:01:34;100758.69;;;5.47;82.13
76201;BME280;64981;52.930;9.266;2023-12-20T03:04:00;100764.25;;;5.54;81.96
76201;BME280;64981;52.930;9.266;2023-12-20T03:06:25;100758.44;;;5.50;82.15
76201;BME280;64981;52.930;9.266;2023-12-20T03:08:51;100756.28;;;5.35;83.10
76201;BME280;64981;52.930;9.266;2023-12-20T03:11:17;100755.69;;;5.31;83.33
76201;BME280;64981;52.930;9.266;2023-12-20T03:13:43;100741.97;;;5.39;82.99
76201;BME280;64981;52.930;9.266;2023-12-20T03:16:10;100733.38;;;5.37;82.73
76201;BME280;64981;52.930;9.266;2023-12-20T03:18:36;100742.78;;;5.39;83.03
76201;BME280;64981;52.930;9.266;2023-12-20T03:21:01;100729.34;;;5.54;82.60
76201;BME280;64981;52.930;9.266;2023-12-20T03:23:27;100730.31;;;5.53;82.81
76201;BME280;64981;52.930;9.266;2023-12-20T03:25:53;100724.94;;;5.54;82.44
76201;BME280;64981;52.930;9.266;2023-12-20T03:28:18;100731.44;;;5.60;82.30
76201;BME280;64981;52.930;9.266;2023-12-20T03:30:45;100736.53;;;5.52;82.13
76201;BME280;64981;52.930;9.266;2023-12-20T03:33:10;100732.81;;;5.54;82.41
76201;BME280;64981;52.930;9.266;2023-12-20T03:35:36;100733.13;;;5.61;82.32
76201;BME280;64981;52.930;9.266;2023-12-20T03:38:02;100731.31;;;5.61;82.06
76201;BME280;64981;52.930;9.266;2023-12-20T03:40:28;100741.03;;;5.70;82.03
76201;BME280;64981;52.930;9.266;2023-12-20T03:42:53;100735.06;;;5.68;81.77
76201;BME280;64981;52.930;9.266;2023-12-20T03:45:19;100734.19;;;5.58;82.45
76201;BME280;64981;52.930;9.266;2023-12-20T03:47:44;100729.53;;;5.62;82.12
76201;BME280;64981;52.930;9.266;2023-12-20T03:50:10;100738.16;;;5.73;81.96
76201;BME280;64981;52.930;9.266;2023-12-20T03:52:35;100735.75;;;5.61;82.49
76201;BME280;64981;52.930;9.266;2023-12-20T03:55:01;100737.34;;;5.82;81.82
76201;BME280;64981;52.930;9.266;2023-12-20T03:57:26;100730.78;;;5.97;80.95
76201;BME280;64981;52.930;9.266;2023-12-20T03:59:52;100731.31;;;5.91;81.00
76201;BME280;64981;52.930;9.266;2023-12-20T04:02:17;100721.78;;;5.90;81.23
76201;BME280;64981;52.930;9.266;2023-12-20T04:04:43;100719.97;;;5.81;81.79
76201;BME280;64981;52.930;9.266;2023-12-20T04:07:09;100710.09;;;5.94;81.42
76201;BME280;64981;52.930;9.266;2023-12-20T04:09:34;100696.72;;;5.97;81.36
76201;BME280;64981;52.930;9.266;2023-12-20T04:12:00;100688.00;;;5.97;81.39
76201;BME280;64981;52.930;9.266;2023-12-20T04:14:26;100689.97;;;6.04;80.87
76201;BME280;64981;52.930;9.266;2023-12-20T04:16:53;100680.94;;;5.88;81.37
76201;BME280;64981;52.930;9.266;2023-12-20T04:19:19;100692.59;;;6.04;80.59
76201;BME280;64981;52.930;9.266;2023-12-20T04:21:44;100693.53;;;5.94;81.27
76201;BME280;64981;52.930;9.266;2023-12-20T04:24:10;100699.19;;;5.99;81.33
76201;BME280;64981;52.930;9.266;2023-12-20T04:26:35;100688.28;;;5.94;81.08
76201;BME280;64981;52.930;9.266;2023-12-20T04:29:01;100703.22;;;6.03;81.45
76201;BME280;64981;52.930;9.266;2023-12-20T04:31:27;100681.97;;;6.06;80.98
76201;BME280;64981;52.930;9.266;2023-12-20T04:33:52;100692.06;;;6.11;80.64
76201;BME280;64981;52.930;9.266;2023-12-20T04:36:18;100680.88;;;6.18;80.32
76201;BME280;64981;52.930;9.266;2023-12-20T04:38:44;100699.13;;;6.29;79.98
76201;BME280;64981;52.930;9.266;2023-12-20T04:41:09;100689.72;;;6.17;80.40
76201;BME280;64981;52.930;9.266;2023-12-20T04:43:35;100692.63;;;6.14;80.01
76201;BME280;64981;52.930;9.266;2023-12-20T04:46:00;100698.94;;;6.12;80.42
76201;BME280;64981;52.930;9.266;2023-12-20T04:48:26;100687.91;;;6.18;80.08
76201;BME280;64981;52.930;9.266;2023-12-20T04:50:51;100691.81;;;6.23;79.88
76201;BME280;64981;52.930;9.266;2023-12-20T04:53:17;100678.66;;;6.04;80.73
76201;BME280;64981;52.930;9.266;2023-12-20T04:55:43;100695.41;;;6.32;79.43
76201;BME280;64981;52.930;9.266;2023-12-20T04:58:08;100685.03;;;6.21;79.79
76201;BME280;64981;52.930;9.266;2023-12-20T05:00:34;100692.50;;;6.25;79.60
76201;BME280;64981;52.930;9.266;2023-12-20T05:02:59;100678.41;;;6.17;80.10
76201;BME280;64981;52.930;9.266;2023-12-20T05:05:25;100674.00;;;6.36;79.11
76201;BME280;64981;52.930;9.266;2023-12-20T05:07:50;100675.25;;;6.23;79.63
76201;BME280;64981;52.930;9.266;2023-12-20T05:10:16;100685.28;;;6.18;79.93
76201;BME280;64981;52.930;9.266;2023-12-20T05:12:42;100680.22;;;6.26;79.62
76201;BME280;64981;52.930;9.266;2023-12-20T05:15:08;100674.97;;;6.35;79.02
76201;BME280;64981;52.930;9.266;2023-12-20T05:17:33;100672.09;;;6.38;79.10
76201;BME280;64981;52.930;9.266;2023-12-20T05:19:59;100673.88;;;6.28;79.44
76201;BME280;64981;52.930;9.266;2023-12-20T05:22:25;100673.72;;;6.39;79.03
76201;BME280;64981;52.930;9.266;2023-12-20T05:24:50;100670.97;;;6.41;78.88
76201;BME280;64981;52.930;9.266;2023-12-20T05:27:16;100674.81;;;6.27;79.32
76201;BME280;64981;52.930;9.266;2023-12-20T05:29:41;100671.38;;;6.17;79.66
76201;BME280;64981;52.930;9.266;2023-12-20T05:32:07;100676.91;;;6.33;79.03
76201;BME280;64981;52.930;9.266;2023-12-20T05:34:32;100668.63;;;6.28;79.03
76201;BME280;64981;52.930;9.266;2023-12-20T05:36:58;100660.34;;;6.33;78.62
76201;BME280;64981;52.930;9.266;2023-12-20T05:39:24;100663.50;;;6.46;78.18
76201;BME280;64981;52.930;9.266;2023-12-20T05:41:49;100665.06;;;6.48;77.98
76201;BME280;64981;52.930;9.266;2023-12-20T05:44:15;100657.16;;;6.29;78.90
76201;BME280;64981;52.930;9.266;2023-12-20T05:46:40;100659.53;;;6.51;77.95
76201;BME280;64981;52.930;9.266;2023-12-20T05:49:07;100657.47;;;6.36;78.45
76201;BME280;64981;52.930;9.266;2023-12-20T05:51:32;100663.25;;;6.30;78.43
76201;BME280;64981;52.930;9.266;2023-12-20T05:53:58;100655.22;;;6.31;78.85
76201;BME280;64981;52.930;9.266;2023-12-20T05:56:24;100657.00;;;6.31;78.88
76201;BME280;64981;52.930;9.266;2023-12-20T05:58:49;100652.91;;;6.47;78.01
76201;BME280;64981;52.930;9.266;2023-12-20T06:01:15;100656.03;;;6.22;78.72
76201;BME280;64981;52.930;9.266;2023-12-20T06:03:43;100653.44;;;6.32;78.59
76201;BME280;64981;52.930;9.266;2023-12-20T06:06:09;100640.72;;;6.46;77.47
76201;BME280;64981;52.930;9.266;2023-12-20T06:08:36;100652.88;;;6.28;78.50
76201;BME280;64981;52.930;9.266;2023-12-20T06:11:01;100653.44;;;6.41;77.88
76201;BME280;64981;52.930;9.266;2023-12-20T06:13:27;100638.50;;;6.13;78.42
76201;BME280;64981;52.930;9.266;2023-12-20T06:15:55;100655.50;;;6.38;78.33
76201;BME280;64981;52.930;9.266;2023-12-20T06:18:21;100651.22;;;6.37;78.18
76201;BME280;64981;52.930;9.266;2023-12-20T06:20:46;100656.47;;;6.27;78.63
76201;BME280;64981;52.930;9.266;2023-12-20T06:23:12;100653.16;;;6.35;78.43
76201;BME280;64981;52.930;9.266;2023-12-20T06:25:37;100636.84;;;6.22;78.58
76201;BME280;64981;52.930;9.266;2023-12-20T06:28:03;100640.31;;;6.32;78.15
76201;BME280;64981;52.930;9.266;2023-12-20T06:30:29;100640.88;;;6.26;78.35
76201;BME280;64981;52.930;9.266;2023-12-20T06:32:54;100631.91;;;6.38;77.78
76201;BME280;64981;52.930;9.266;2023-12-20T06:35:22;100626.38;;;6.22;78.28
76201;BME280;64981;52.930;9.266;2023-12-20T06:37:48;100630.22;;;6.18;78.90
76201;BME280;64981;52.930;9.266;2023-12-20T06:40:14;100631.06;;;6.28;78.28
76201;BME280;64981;52.930;9.266;2023-12-20T06:42:39;100642.00;;;6.33;78.56
76201;BME280;64981;52.930;9.266;2023-12-20T06:45:05;100627.03;;;6.24;79.38
76201;BME280;64981;52.930;9.266;2023-12-20T06:47:30;100630.78;;;6.21;79.40
76201;BME280;64981;52.930;9.266;2023-12-20T06:49:56;100637.81;;;6.21;79.72
76201;BME280;64981;52.930;9.266;2023-12-20T06:52:22;100622.81;;;6.42;78.66
76201;BME280;64981;52.930;9.266;2023-12-20T06:54:47;100621.97;;;6.32;78.88
76201;BME280;64981;52.930;9.266;2023-12-20T06:57:13;100611.88;;;6.37;78.93
76201;BME280;64981;52.930;9.266;2023-12-20T06:59:40;100611.88;;;6.46;78.36
76201;BME280;64981;52.930;9.266;2023-12-20T07:02:07;100599.31;;;6.40;78.40
76201;BME280;64981;52.930;9.266;2023-12-20T07:04:33;100610.75;;;6.39;77.60
76201;BME280;64981;52.930;9.266;2023-12-20T07:06:59;100602.59;;;6.52;76.64
76201;BME280;64981;52.930;9.266;2023-12-20T07:09:26;100602.50;;;6.34;78.05
76201;BME280;64981;52.930;9.266;2023-12-20T07:11:52;100589.38;;;6.53;77.69
76201;BME280;64981;52.930;9.266;2023-12-20T07:14:18;100591.72;;;6.28;79.58
76201;BME280;64981;52.930;9.266;2023-12-20T07:16:44;100580.41;;;6.37;79.52
76201;BME280;64981;52.930;9.266;2023-12-20T07:19:09;100586.34;;;6.39;79.61
76201;BME280;64981;52.930;9.266;2023-12-20T07:21:35;100583.72;;;6.29;80.13
76201;BME280;64981;52.930;9.266;2023-12-20T07:24:00;100587.47;;;6.27;79.41
76201;BME280;64981;52.930;9.266;2023-12-20T07:26:27;100582.34;;;6.16;79.49
76201;BME280;64981;52.930;9.266;2023-12-20T07:28:53;100570.63;;;6.20;84.27
76201;BME280;64981;52.930;9.266;2023-12-20T07:31:18;100582.75;;;6.40;79.68
76201;BME280;64981;52.930;9.266;2023-12-20T07:33:44;100583.16;;;6.54;78.47
76201;BME280;64981;52.930;9.266;2023-12-20T07:36:09;100578.75;;;6.17;79.40
76201;BME280;64981;52.930;9.266;2023-12-20T07:38:35;100581.22;;;6.28;79.17
76201;BME280;64981;52.930;9.266;2023-12-20T07:41:01;100581.09;;;6.20;80.22
76201;BME280;64981;52.930;9.266;2023-12-20T07:43:26;100580.66;;;6.15;80.64
76201;BME280;64981;52.930;9.266;2023-12-20T07:45:52;100567.72;;;6.13;79.90
76201;BME280;64981;52.930;9.266;2023-12-20T07:48:17;100591.59;;;6.29;80.05
76201;BME280;64981;52.930;9.266;2023-12-20T07:50:43;100583.72;;;6.20;80.07
76201;BME280;64981;52.930;9.266;2023-12-20T07:53:08;100594.50;;;6.36;79.74
76201;BME280;64981;52.930;9.266;2023-12-20T07:55:34;100571.84;;;6.44;79.01
76201;BME280;64981;52.930;9.266;2023-12-20T07:58:00;100572.78;;;6.53;78.53
76201;BME280;64981;52.930;9.266;2023-12-20T08:00:26;100578.13;;;6.71;78.23
76201;BME280;64981;52.930;9.266;2023-12-20T08:02:52;100558.28;;;6.58;78.58
76201;BME280;64981;52.930;9.266;2023-12-20T08:05:18;100568.13;;;6.37;79.47
76201;BME280;64981;52.930;9.266;2023-12-20T08:07:43;100559.38;;;6.66;78.90
76201;BME280;64981;52.930;9.266;2023-12-20T08:10:09;100566.97;;;6.69;78.64
76201;BME280;64981;52.930;9.266;2023-12-20T08:12:35;100552.34;;;6.66;79.03
76201;BME280;64981;52.930;9.266;2023-12-20T08:15:02;100558.53;;;6.75;78.20
76201;BME280;64981;52.930;9.266;2023-12-20T08:17:27;100574.44;;;6.73;79.01
76201;BME280;64981;52.930;9.266;2023-12-20T08:19:53;100571.94;;;6.62;79.71
76201;BME280;64981;52.930;9.266;2023-12-20T08:22:19;100556.34;;;6.61;79.49
76201;BME280;64981;52.930;9.266;2023-12-20T08:24:44;100562.97;;;6.65;79.27
76201;BME280;64981;52.930;9.266;2023-12-20T08:27:10;100547.75;;;6.68;79.48
76201;BME280;64981;52.930;9.266;2023-12-20T08:29:35;100555.50;;;6.89;78.42
76201;BME280;64981;52.930;9.266;2023-12-20T08:32:01;100559.25;;;6.86;78.22
76201;BME280;64981;52.930;9.266;2023-12-20T08:34:27;100548.69;;;6.96;78.01
76201;BME280;64981;52.930;9.266;2023-12-20T08:36:53;100547.34;;;6.82;78.08
76201;BME280;64981;52.930;9.266;2023-12-20T08:39:19;100535.53;;;6.96;78.30
76201;BME280;64981;52.930;9.266;2023-12-20T08:41:45;100533.34;;;7.01;78.07
76201;BME280;64981;52.930;9.266;2023-12-20T08:44:10;100543.06;;;6.81;78.59
76201;BME280;64981;52.930;9.266;2023-12-20T08:46:36;100532.84;;;6.69;79.06
76201;BME280;64981;52.930;9.266;2023-12-20T08:49:02;100528.41;;;6.88;78.52
76201;BME280;64981;52.930;9.266;2023-12-20T08:51:28;100532.56;;;6.72;78.55
76201;BME280;64981;52.930;9.266;2023-12-20T08:53:54;100524.56;;;6.83;78.73
76201;BME280;64981;52.930;9.266;2023-12-20T08:56:20;100512.16;;;7.02;77.46
76201;BME280;64981;52.930;9.266;2023-12-20T08:58:46;100505.66;;;6.79;77.69
76201;BME280;64981;52.930;9.266;2023-12-20T09:01:14;100499.94;;;6.84;78.09
76201;BME280;64981;52.930;9.266;2023-12-20T09:03:40;100502.91;;;7.08;77.81
76201;BME280;64981;52.930;9.266;2023-12-20T09:06:06;100482.75;;;6.99;77.91
76201;BME280;64981;52.930;9.266;2023-12-20T09:08:31;100490.97;;;6.86;78.29
76201;BME280;64981;52.930;9.266;2023-12-20T09:10:57;100489.81;;;6.98;78.06
76201;BME280;64981;52.930;9.266;2023-12-20T09:13:23;100498.25;;;7.02;77.79
76201;BME280;64981;52.930;9.266;2023-12-20T09:15:55;100484.91;;;6.86;77.82
76201;BME280;64981;52.930;9.266;2023-12-20T09:18:21;100487.00;;;7.09;77.63
76201;BME280;64981;52.930;9.266;2023-12-20T09:20:46;100491.16;;;7.02;77.64
76201;BME280;64981;52.930;9.266;2023-12-20T09:23:12;100490.44;;;7.10;77.74
76201;BME280;64981;52.930;9.266;2023-12-20T09:25:37;100491.13;;;7.12;78.48
76201;BME280;64981;52.930;9.266;2023-12-20T09:28:03;100491.88;;;7.04;79.16
76201;BME280;64981;52.930;9.266;2023-12-20T09:30:29;100485.72;;;7.14;79.34
76201;BME280;64981;52.930;9.266;2023-12-20T09:32:55;100471.69;;;7.05;79.86
76201;BME280;64981;52.930;9.266;2023-12-20T09:35:21;100475.00;;;7.25;78.95
76201;BME280;64981;52.930;9.266;2023-12-20T09:37:46;100466.66;;;7.11;79.35
76201;BME280;64981;52.930;9.266;2023-12-20T09:40:13;100478.16;;;7.10;79.63
76201;BME280;64981;52.930;9.266;2023-12-20T09:42:57;100473.63;;;7.03;80.17
76201;BME280;64981;52.930;9.266;2023-12-20T09:45:23;100481.19;;;7.06;79.72
76201;BME280;64981;52.930;9.266;2023-12-20T09:47:51;100475.91;;;6.88;80.24
76201;BME280;64981;52.930;9.266;2023-12-20T09:50:21;100483.00;;;7.05;79.72
76201;BME280;64981;52.930;9.266;2023-12-20T09:52:51;100482.28;;;7.13;79.70
76201;BME280;64981;52.930;9.266;2023-12-20T09:55:19;100473.19;;;7.07;80.02
76201;BME280;64981;52.930;9.266;2023-12-20T09:57:46;100476.19;;;7.13;80.18
76201;BME280;64981;52.930;9.266;2023-12-20T10:00:12;100483.56;;;6.99;80.76
76201;BME280;64981;52.930;9.266;2023-12-20T10:02:52;100485.19;;;7.10;80.38
76201;BME280;64981;52.930;9.266;2023-12-20T10:05:28;100475.06;;;7.15;80.03
76201;BME280;64981;52.930;9.266;2023-12-20T10:07:54;100471.22;;;7.09;80.03
76201;BME280;64981;52.930;9.266;2023-12-20T10:10:20;100464.03;;;7.11;79.70
76201;BME280;64981;52.930;9.266;2023-12-20T10:15:33;100475.91;;;7.16;79.89
76201;BME280;64981;52.930;9.266;2023-12-20T10:17:59;100488.34;;;7.14;80.22
76201;BME280;64981;52.930;9.266;2023-12-20T10:20:25;100500.00;;;7.11;80.93
76201;BME280;64981;52.930;9.266;2023-12-20T10:22:52;100538.03;;;6.97;82.18
76201;BME280;64981;52.930;9.266;2023-12-20T10:25:20;100535.25;;;6.99;82.43
76201;BME280;64981;52.930;9.266;2023-12-20T10:27:46;100547.34;;;6.82;82.86
76201;BME280;64981;52.930;9.266;2023-12-20T10:30:13;100534.66;;;6.58;81.01
76201;BME280;64981;52.930;9.266;2023-12-20T10:32:39;100538.13;;;6.40;77.93
76201;BME280;64981;52.930;9.266;2023-12-20T10:35:06;100549.63;;;6.29;78.10
76201;BME280;64981;52.930;9.266;2023-12-20T10:37:39;100535.41;;;6.13;79.97
76201;BME280;64981;52.930;9.266;2023-12-20T10:40:06;100536.81;;;6.17;79.13
76201;BME280;64981;52.930;9.266;2023-12-20T10:42:32;100515.94;;;6.15;79.22
76201;BME280;64981;52.930;9.266;2023-12-20T10:45:00;100515.53;;;6.00;79.20
76201;BME280;64981;52.930;9.266;2023-12-20T10:47:26;100520.50;;;5.84;79.17
76201;BME280;64981;52.930;9.266;2023-12-20T10:49:54;100523.53;;;5.89;79.71
76201;BME280;64981;52.930;9.266;2023-12-20T10:52:23;100520.13;;;5.98;79.98
76201;BME280;64981;52.930;9.266;2023-12-20T10:54:49;100520.38;;;5.76;80.64
76201;BME280;64981;52.930;9.266;2023-12-20T10:57:18;100527.53;;;5.84;79.80
76201;BME280;64981;52.930;9.266;2023-12-20T10:59:45;100526.16;;;6.09;78.75
76201;BME280;64981;52.930;9.266;2023-12-20T11:02:13;100519.56;;;5.95;79.23
76201;BME280;64981;52.930;9.266;2023-12-20T11:04:51;100522.19;;;6.04;79.20
76201;BME280;64981;52.930;9.266;2023-12-20T11:07:33;100507.13;;;5.97;79.25
76201;BME280;64981;52.930;9.266;2023-12-20T11:10:23;100518.16;;;6.10;79.11
76201;BME280;64981;52.930;9.266;2023-12-20T11:12:59;100506.16;;;6.17;78.36
76201;BME280;64981;52.930;9.266;2023-12-20T11:15:26;100516.66;;;6.27;78.22
76201;BME280;64981;52.930;9.266;2023-12-20T11:17:56;100499.09;;;6.18;78.14
76201;BME280;64981;52.930;9.266;2023-12-20T11:20:23;100501.28;;;6.41;77.41
76201;BME280;64981;52.930;9.266;2023-12-20T11:22:53;100492.06;;;6.28;77.81
76201;BME280;64981;52.930;9.266;2023-12-20T11:25:19;100494.09;;;6.43;76.21
76201;BME280;64981;52.930;9.266;2023-12-20T11:28:07;100486.09;;;6.45;76.22
76201;BME280;64981;52.930;9.266;2023-12-20T11:30:47;100507.31;;;6.61;76.30
76201;BME280;64981;52.930;9.266;2023-12-20T11:33:14;100496.78;;;6.71;75.40
76201;BME280;64981;52.930;9.266;2023-12-20T11:35:41;100503.00;;;6.89;74.99
76201;BME280;64981;52.930;9.266;2023-12-20T11:38:09;100492.16;;;7.29;74.97
76201;BME280;64981;52.930;9.266;2023-12-20T11:40:35;100504.44;;;7.73;72.37
76201;BME280;64981;52.930;9.266;2023-12-20T11:43:03;100493.16;;;8.16;70.97
76201;BME280;64981;52.930;9.266;2023-12-20T11:45:29;100493.97;;;8.16;69.26
76201;BME280;64981;52.930;9.266;2023-12-20T11:47:56;100484.06;;;8.10;70.00
76201;BME280;64981;52.930;9.266;2023-12-20T11:50:24;100493.63;;;8.37;68.93
76201;BME280;64981;52.930;9.266;2023-12-20T11:52:51;100480.75;;;8.52;68.30
76201;BME280;64981;52.930;9.266;2023-12-20T11:55:17;100487.44;;;8.64;67.52
76201;BME280;64981;52.930;9.266;2023-12-20T11:57:43;100486.09;;;8.94;66.59
76201;BME280;64981;52.930;9.266;2023-12-20T12:00:09;100488.25;;;9.40;65.39
76201;BME280;64981;52.930;9.266;2023-12-20T12:02:35;100484.38;;;9.76;64.19
76201;BME280;64981;52.930;9.266;2023-12-20T12:05:01;100485.38;;;9.92;63.40
76201;BME280;64981;52.930;9.266;2023-12-20T12:07:26;100474.03;;;10.31;62.85
76201;BME280;64981;52.930;9.266;2023-12-20T12:09:52;100484.88;;;10.61;60.39
76201;BME280;64981;52.930;9.266;2023-12-20T12:12:19;100487.25;;;11.03;60.00
76201;BME280;64981;52.930;9.266;2023-12-20T12:14:45;100485.00;;;11.22;58.64
76201;BME280;64981;52.930;9.266;2023-12-20T12:17:12;100497.41;;;11.53;59.08
76201;BME280;64981;52.930;9.266;2023-12-20T12:19:39;100486.41;;;11.95;57.58
76201;BME280;64981;52.930;9.266;2023-12-20T12:22:08;100477.94;;;11.99;56.60
76201;BME280;64981;52.930;9.266;2023-12-20T12:24:36;100480.44;;;11.78;56.02
76201;BME280;64981;52.930;9.266;2023-12-20T12:27:02;100473.13;;;11.80;56.24
76201;BME280;64981;52.930;9.266;2023-12-20T12:29:28;100473.72;;;11.90;56.40
76201;BME280;64981;52.930;9.266;2023-12-20T12:31:54;100479.53;;;11.55;57.21
76201;BME280;64981;52.930;9.266;2023-12-20T12:34:20;100481.44;;;11.69;57.28
76201;BME280;64981;52.930;9.266;2023-12-20T12:36:46;100475.31;;;11.37;57.69
76201;BME280;64981;52.930;9.266;2023-12-20T12:39:13;100491.81;;;11.48;58.06
76201;BME280;64981;52.930;9.266;2023-12-20T12:41:41;100487.16;;;11.19;58.89
76201;BME280;64981;52.930;9.266;2023-12-20T12:44:06;100489.25;;;11.31;58.58
76201;BME280;64981;52.930;9.266;2023-12-20T12:46:32;100485.88;;;11.07;58.91
76201;BME280;64981;52.930;9.266;2023-12-20T12:48:58;100492.47;;;10.64;60.07
76201;BME280;64981;52.930;9.266;2023-12-20T12:51:23;100480.53;;;10.84;59.57
76201;BME280;64981;52.930;9.266;2023-12-20T12:53:49;100484.34;;;10.73;59.87
76201;BME280;64981;52.930;9.266;2023-12-20T12:56:15;100483.13;;;10.37;61.07
76201;BME280;64981;52.930;9.266;2023-12-20T12:58:41;100484.25;;;10.10;61.88